sensor_id;sensor_type;location;lat;lon;timestamp;temperature;humidity
1355;DHT22;671;48.972;9.276;2023-07-31T00:02:05;17.20;99.90
1355;DHT22;671;48.972;9.276;2023-07-31T00:04:32;17.10;99.90
1355;DHT22;671;48.972;9.276;2023-07-31T00:06:58;17.10;99.90
1355;DHT22;671;48.972;9.276;2023-07-31T00:09:25;17.00;99.90
1355;DHT22;671;48.972;9.276;2023-07-31T00:11:51;17.00;99.90
1355;DHT22;671;48.972;9.276;2023-07-31T00:14:18;16.90;99.90
1355;DHT22;671;48.972;9.276;2023-07-31T00:16:44;16.90;99.90
1355;DHT22;671;48.972;9.276;2023-07-31T00:19:11;16.90;99.90
1355;DHT22;671;48.972;9.276;2023-07-31T00:21:37;16.90;99.90
1355;DHT22;671;48.972;9.276;2023-07-31T00:24:04;16.80;99.90
1355;DHT22;671;48.972;9.276;2023-07-31T00:26:30;16.80;99.90
1355;DHT22;671;48.972;9.276;2023-07-31T00:28:57;16.80;99.90
1355;DHT22;671;48.972;9.276;2023-07-31T00:31:23;16.70;99.90
1355;DHT22;671;48.972;9.276;2023-07-31T00:33:50;16.70;99.90
1355;DHT22;671;48.972;9.276;2023-07-31T00:36:16;16.70;99.90
1355;DHT22;671;48.972;9.276;2023-07-31T00:38:44;16.60;99.90
1355;DHT22;671;48.972;9.276;2023-07-31T00:41:10;16.60;99.90
1355;DHT22;671;48.972;9.276;2023-07-31T00:43:37;16.60;99.90
1355;DHT22;671;48.972;9.276;2023-07-31T00:46:03;16.60;99.90
1355;DHT22;671;48.972;9.276;2023-07-31T00:48:30;16.60;99.90
1355;DHT22;671;48.972;9.276;2023-07-31T00:50:57;16.70;99.90
1355;DHT22;671;48.972;9.276;2023-07-31T00:53:24;16.70;99.90
1355;DHT22;671;48.972;9.276;2023-07-31T00:55:52;16.70;99.90
1355;DHT22;671;48.972;9.276;2023-07-31T00:58:18;16.70;99.90
1355;DHT22;671;48.972;9.276;2023-07-31T01:00:45;16.70;99.90
1355;DHT22;671;48.972;9.276;2023-07-31T01:03:12;16.60;99.90
1355;DHT22;671;48.972;9.276;2023-07-31T01:11:27;16.60;99.90
1355;DHT22;671;48.972;9.276;2023-07-31T01:13:55;16.50;99.90
1355;DHT22;671;48.972;9.276;2023-07-31T01:16:22;16.50;99.90
1355;DHT22;671;48.972;9.276;2023-07-31T01:18:49;16.50;99.90
1355;DHT22;671;48.972;9.276;2023-07-31T01:27:14;16.40;99.90
1355;DHT22;671;48.972;9.276;2023-07-31T01:29:46;16.40;99.90
1355;DHT22;671;48.972;9.276;2023-07-31T01:32:13;16.40;99.90
1355;DHT22;671;48.972;9.276;2023-07-31T01:34:41;16.40;99.90
1355;DHT22;671;48.972;9.276;2023-07-31T01:37:08;16.40;99.90
1355;DHT22;671;48.972;9.276;2023-07-31T01:39:35;16.40;99.90
1355;DHT22;671;48.972;9.276;2023-07-31T01:42:01;16.40;99.90
1355;DHT22;671;48.972;9.276;2023-07-31T01:44:28;16.40;99.90
1355;DHT22;671;48.972;9.276;2023-07-31T01:46:54;16.40;99.90
1355;DHT22;671;48.972;9.276;2023-07-31T01:49:21;16.50;99.90
1355;DHT22;671;48.972;9.276;2023-07-31T01:51:47;16.50;99.90
1355;DHT22;671;48.972;9.276;2023-07-31T01:54:14;16.50;99.90
1355;DHT22;671;48.972;9.276;2023-07-31T01:56:40;16.50;99.90
1355;DHT22;671;48.972;9.276;2023-07-31T01:59:06;16.50;99.90
1355;DHT22;671;48.972;9.276;2023-07-31T02:01:33;16.50;99.90
1355;DHT22;671;48.972;9.276;2023-07-31T02:04:00;16.50;99.90
1355;DHT22;671;48.972;9.276;2023-07-31T02:06:26;16.60;99.90
1355;DHT22;671;48.972;9.276;2023-07-31T02:08:53;16.60;99.90
1355;DHT22;671;48.972;9.276;2023-07-31T02:11:19;16.60;99.90
1355;DHT22;671;48.972;9.276;2023-07-31T02:13:46;16.70;99.90
1355;DHT22;671;48.972;9.276;2023-07-31T02:16:12;16.60;99.90
1355;DHT22;671;48.972;9.276;2023-07-31T02:18:39;16.60;99.90
1355;DHT22;671;48.972;9.276;2023-07-31T02:21:05;16.60;99.90
1355;DHT22;671;48.972;9.276;2023-07-31T02:23:32;16.60;99.90
1355;DHT22;671;48.972;9.276;2023-07-31T02:25:58;16.60;99.90
1355;DHT22;671;48.972;9.276;2023-07-31T02:28:25;16.50;99.90
1355;DHT22;671;48.972;9.276;2023-07-31T02:30:51;16.50;99.90
1355;DHT22;671;48.972;9.276;2023-07-31T02:33:18;16.50;99.90
1355;DHT22;671;48.972;9.276;2023-07-31T02:35:45;16.60;99.90
1355;DHT22;671;48.972;9.276;2023-07-31T02:38:11;16.60;99.90
1355;DHT22;671;48.972;9.276;2023-07-31T02:40:39;16.60;99.90
1355;DHT22;671;48.972;9.276;2023-07-31T02:43:08;16.60;99.90
1355;DHT22;671;48.972;9.276;2023-07-31T02:45:34;16.60;99.90
1355;DHT22;671;48.972;9.276;2023-07-31T02:48:01;16.70;99.90
1355;DHT22;671;48.972;9.276;2023-07-31T02:50:27;16.70;99.90
1355;DHT22;671;48.972;9.276;2023-07-31T02:52:54;16.70;99.90
1355;DHT22;671;48.972;9.276;2023-07-31T02:55:21;16.70;99.90
1355;DHT22;671;48.972;9.276;2023-07-31T02:57:47;16.70;99.90
1355;DHT22;671;48.972;9.276;2023-07-31T03:00:14;16.70;99.90
1355;DHT22;671;48.972;9.276;2023-07-31T03:02:40;16.70;99.90
1355;DHT22;671;48.972;9.276;2023-07-31T03:05:07;16.70;99.90
1355;DHT22;671;48.972;9.276;2023-07-31T03:07:34;16.70;99.90
1355;DHT22;671;48.972;9.276;2023-07-31T03:10:00;16.70;99.90
1355;DHT22;671;48.972;9.276;2023-07-31T03:12:27;16.70;99.90
1355;DHT22;671;48.972;9.276;2023-07-31T03:14:54;16.60;99.90
1355;DHT22;671;48.972;9.276;2023-07-31T03:17:20;16.60;99.90
1355;DHT22;671;48.972;9.276;2023-07-31T03:19:47;16.60;99.90
1355;DHT22;671;48.972;9.276;2023-07-31T03:22:13;16.50;99.90
1355;DHT22;671;48.972;9.276;2023-07-31T03:24:40;16.60;99.90
1355;DHT22;671;48.972;9.276;2023-07-31T03:27:06;16.50;99.90
1355;DHT22;671;48.972;9.276;2023-07-31T03:29:33;16.50;99.90
1355;DHT22;671;48.972;9.276;2023-07-31T03:31:59;16.50;99.90
1355;DHT22;671;48.972;9.276;2023-07-31T03:34:26;16.40;99.90
1355;DHT22;671;48.972;9.276;2023-07-31T03:36:52;16.40;99.90
1355;DHT22;671;48.972;9.276;2023-07-31T03:39:19;16.40;99.90
1355;DHT22;671;48.972;9.276;2023-07-31T03:41:45;16.40;99.90
1355;DHT22;671;48.972;9.276;2023-07-31T03:44:12;16.30;99.90
1355;DHT22;671;48.972;9.276;2023-07-31T03:46:38;16.30;99.90
1355;DHT22;671;48.972;9.276;2023-07-31T03:49:05;16.30;99.90
1355;DHT22;671;48.972;9.276;2023-07-31T03:51:31;16.30;99.90
1355;DHT22;671;48.972;9.276;2023-07-31T03:53:57;16.20;99.90
1355;DHT22;671;48.972;9.276;2023-07-31T03:56:24;16.20;99.90
1355;DHT22;671;48.972;9.276;2023-07-31T03:58:50;16.20;99.90
1355;DHT22;671;48.972;9.276;2023-07-31T04:01:17;16.30;99.90
1355;DHT22;671;48.972;9.276;2023-07-31T04:03:45;16.30;99.90
1355;DHT22;671;48.972;9.276;2023-07-31T04:06:12;16.30;99.90
1355;DHT22;671;48.972;9.276;2023-07-31T04:08:38;16.30;99.90
1355;DHT22;671;48.972;9.276;2023-07-31T04:11:05;16.30;99.90
1355;DHT22;671;48.972;9.276;2023-07-31T04:13:31;16.30;99.90
1355;DHT22;671;48.972;9.276;2023-07-31T04:15:58;16.30;99.90
1355;DHT22;671;48.972;9.276;2023-07-31T04:18:25;16.40;99.90
1355;DHT22;671;48.972;9.276;2023-07-31T04:20:52;16.40;99.90
1355;DHT22;671;48.972;9.276;2023-07-31T04:23:18;16.40;99.90
1355;DHT22;671;48.972;9.276;2023-07-31T04:25:45;16.40;99.90
1355;DHT22;671;48.972;9.276;2023-07-31T04:28:11;16.40;99.90
1355;DHT22;671;48.972;9.276;2023-07-31T04:30:38;16.40;99.90
1355;DHT22;671;48.972;9.276;2023-07-31T04:33:05;16.50;99.90
1355;DHT22;671;48.972;9.276;2023-07-31T04:35:31;16.50;99.90
1355;DHT22;671;48.972;9.276;2023-07-31T04:37:58;16.60;99.90
1355;DHT22;671;48.972;9.276;2023-07-31T04:40:24;16.70;99.90
1355;DHT22;671;48.972;9.276;2023-07-31T04:42:51;16.80;99.90
1355;DHT22;671;48.972;9.276;2023-07-31T04:45:17;16.90;99.90
1355;DHT22;671;48.972;9.276;2023-07-31T04:47:44;16.90;99.90
1355;DHT22;671;48.972;9.276;2023-07-31T04:50:10;17.10;99.90
1355;DHT22;671;48.972;9.276;2023-07-31T04:52:37;17.10;99.90
1355;DHT22;671;48.972;9.276;2023-07-31T04:55:04;17.20;99.90
1355;DHT22;671;48.972;9.276;2023-07-31T04:57:30;17.30;99.90
1355;DHT22;671;48.972;9.276;2023-07-31T04:59:57;17.40;99.90
1355;DHT22;671;48.972;9.276;2023-07-31T05:02:23;17.40;99.90
1355;DHT22;671;48.972;9.276;2023-07-31T05:04:50;17.50;99.90
1355;DHT22;671;48.972;9.276;2023-07-31T05:07:17;17.60;99.90
1355;DHT22;671;48.972;9.276;2023-07-31T05:09:43;17.70;99.90
1355;DHT22;671;48.972;9.276;2023-07-31T05:12:10;17.70;99.90
1355;DHT22;671;48.972;9.276;2023-07-31T05:14:36;17.70;99.90
1355;DHT22;671;48.972;9.276;2023-07-31T05:17:03;17.70;99.90
1355;DHT22;671;48.972;9.276;2023-07-31T05:19:30;17.80;99.90
1355;DHT22;671;48.972;9.276;2023-07-31T05:21:57;17.80;99.90
1355;DHT22;671;48.972;9.276;2023-07-31T05:24:23;17.90;99.90
1355;DHT22;671;48.972;9.276;2023-07-31T05:26:50;17.90;99.90
1355;DHT22;671;48.972;9.276;2023-07-31T05:29:16;18.00;99.90
1355;DHT22;671;48.972;9.276;2023-07-31T05:31:43;18.10;99.90
1355;DHT22;671;48.972;9.276;2023-07-31T05:34:09;18.20;99.90
1355;DHT22;671;48.972;9.276;2023-07-31T05:36:36;18.40;99.90
1355;DHT22;671;48.972;9.276;2023-07-31T05:39:02;18.80;99.90
1355;DHT22;671;48.972;9.276;2023-07-31T05:41:33;20.10;99.90
1355;DHT22;671;48.972;9.276;2023-07-31T05:44:00;21.10;99.90
1355;DHT22;671;48.972;9.276;2023-07-31T05:46:27;21.50;99.90
1355;DHT22;671;48.972;9.276;2023-07-31T05:48:53;21.60;99.90
1355;DHT22;671;48.972;9.276;2023-07-31T05:51:20;21.20;99.90
1355;DHT22;671;48.972;9.276;2023-07-31T05:53:46;20.80;99.90
1355;DHT22;671;48.972;9.276;2023-07-31T05:56:13;20.50;99.90
1355;DHT22;671;48.972;9.276;2023-07-31T05:58:39;20.30;99.90
1355;DHT22;671;48.972;9.276;2023-07-31T06:01:06;20.20;99.90
1355;DHT22;671;48.972;9.276;2023-07-31T06:03:33;20.10;99.90
1355;DHT22;671;48.972;9.276;2023-07-31T06:05:59;20.30;99.90
1355;DHT22;671;48.972;9.276;2023-07-31T06:08:26;20.40;99.90
1355;DHT22;671;48.972;9.276;2023-07-31T06:10:52;20.50;99.90
1355;DHT22;671;48.972;9.276;2023-07-31T06:13:19;20.50;99.90
1355;DHT22;671;48.972;9.276;2023-07-31T06:15:45;20.60;99.90
1355;DHT22;671;48.972;9.276;2023-07-31T06:18:12;20.50;99.90
1355;DHT22;671;48.972;9.276;2023-07-31T06:20:39;20.40;99.90
1355;DHT22;671;48.972;9.276;2023-07-31T06:23:06;20.20;99.90
1355;DHT22;671;48.972;9.276;2023-07-31T06:25:33;20.30;99.90
1355;DHT22;671;48.972;9.276;2023-07-31T06:27:59;20.40;99.90
1355;DHT22;671;48.972;9.276;2023-07-31T06:30:26;20.40;99.90
1355;DHT22;671;48.972;9.276;2023-07-31T06:32:52;20.50;99.90
1355;DHT22;671;48.972;9.276;2023-07-31T06:35:19;20.60;99.90
1355;DHT22;671;48.972;9.276;2023-07-31T06:37:45;20.70;99.90
1355;DHT22;671;48.972;9.276;2023-07-31T06:40:12;20.90;99.90
1355;DHT22;671;48.972;9.276;2023-07-31T06:42:39;21.00;99.90
1355;DHT22;671;48.972;9.276;2023-07-31T06:45:06;21.10;99.90
1355;DHT22;671;48.972;9.276;2023-07-31T06:47:33;21.30;99.90
1355;DHT22;671;48.972;9.276;2023-07-31T06:49:59;21.50;99.90
1355;DHT22;671;48.972;9.276;2023-07-31T06:52:26;21.60;99.90
1355;DHT22;671;48.972;9.276;2023-07-31T06:55:03;21.60;99.90
1355;DHT22;671;48.972;9.276;2023-07-31T06:57:30;21.70;99.90
1355;DHT22;671;48.972;9.276;2023-07-31T06:59:57;21.90;99.90
1355;DHT22;671;48.972;9.276;2023-07-31T07:02:23;22.00;99.90
1355;DHT22;671;48.972;9.276;2023-07-31T07:04:50;22.40;99.90
1355;DHT22;671;48.972;9.276;2023-07-31T07:07:17;22.70;99.90
1355;DHT22;671;48.972;9.276;2023-07-31T07:09:44;22.80;99.90
1355;DHT22;671;48.972;9.276;2023-07-31T07:12:10;23.00;99.90
1355;DHT22;671;48.972;9.276;2023-07-31T07:14:36;23.10;99.90
1355;DHT22;671;48.972;9.276;2023-07-31T07:17:03;23.10;99.90
1355;DHT22;671;48.972;9.276;2023-07-31T07:19:30;23.20;99.90
1355;DHT22;671;48.972;9.276;2023-07-31T07:21:56;23.10;99.90
1355;DHT22;671;48.972;9.276;2023-07-31T07:24:23;23.10;99.90
1355;DHT22;671;48.972;9.276;2023-07-31T07:26:49;23.30;99.90
1355;DHT22;671;48.972;9.276;2023-07-31T07:29:16;23.30;99.90
1355;DHT22;671;48.972;9.276;2023-07-31T07:31:42;23.30;99.90
1355;DHT22;671;48.972;9.276;2023-07-31T07:34:09;23.30;99.90
1355;DHT22;671;48.972;9.276;2023-07-31T07:36:35;23.20;99.90
1355;DHT22;671;48.972;9.276;2023-07-31T07:39:02;23.10;99.90
1355;DHT22;671;48.972;9.276;2023-07-31T07:41:28;23.00;99.90
1355;DHT22;671;48.972;9.276;2023-07-31T07:43:55;23.00;99.90
1355;DHT22;671;48.972;9.276;2023-07-31T07:46:21;23.10;99.90
1355;DHT22;671;48.972;9.276;2023-07-31T07:48:47;23.30;99.90
1355;DHT22;671;48.972;9.276;2023-07-31T07:51:14;23.30;99.90
1355;DHT22;671;48.972;9.276;2023-07-31T07:53:40;23.40;99.90
1355;DHT22;671;48.972;9.276;2023-07-31T07:56:07;23.50;99.90
1355;DHT22;671;48.972;9.276;2023-07-31T07:58:34;23.50;99.90
1355;DHT22;671;48.972;9.276;2023-07-31T08:01:00;23.70;99.90
1355;DHT22;671;48.972;9.276;2023-07-31T08:03:27;23.70;99.90
1355;DHT22;671;48.972;9.276;2023-07-31T08:06:00;23.80;99.90
1355;DHT22;671;48.972;9.276;2023-07-31T08:08:28;23.80;99.90
1355;DHT22;671;48.972;9.276;2023-07-31T08:10:55;23.90;99.90
1355;DHT22;671;48.972;9.276;2023-07-31T08:13:21;24.00;99.90
1355;DHT22;671;48.972;9.276;2023-07-31T08:15:48;24.10;99.90
1355;DHT22;671;48.972;9.276;2023-07-31T08:18:14;24.00;99.90
1355;DHT22;671;48.972;9.276;2023-07-31T08:20:42;23.90;99.90
1355;DHT22;671;48.972;9.276;2023-07-31T08:23:08;24.00;99.90
1355;DHT22;671;48.972;9.276;2023-07-31T08:25:35;24.10;99.90
1355;DHT22;671;48.972;9.276;2023-07-31T08:28:03;24.30;99.90
1355;DHT22;671;48.972;9.276;2023-07-31T08:30:29;24.30;99.90
1355;DHT22;671;48.972;9.276;2023-07-31T08:32:56;24.30;99.90
1355;DHT22;671;48.972;9.276;2023-07-31T08:35:24;24.30;99.90
1355;DHT22;671;48.972;9.276;2023-07-31T08:37:51;24.30;99.90
1355;DHT22;671;48.972;9.276;2023-07-31T08:40:17;24.40;99.90
1355;DHT22;671;48.972;9.276;2023-07-31T08:42:50;24.50;99.90
1355;DHT22;671;48.972;9.276;2023-07-31T08:45:18;24.70;99.90
1355;DHT22;671;48.972;9.276;2023-07-31T08:47:46;24.80;99.90
1355;DHT22;671;48.972;9.276;2023-07-31T08:50:14;24.80;99.90
1355;DHT22;671;48.972;9.276;2023-07-31T08:52:41;24.70;99.90
1355;DHT22;671;48.972;9.276;2023-07-31T08:55:08;24.70;99.90
1355;DHT22;671;48.972;9.276;2023-07-31T08:57:36;24.70;99.90
1355;DHT22;671;48.972;9.276;2023-07-31T09:00:07;24.70;99.90
1355;DHT22;671;48.972;9.276;2023-07-31T09:03:03;24.80;99.90
1355;DHT22;671;48.972;9.276;2023-07-31T09:05:35;24.90;99.90
1355;DHT22;671;48.972;9.276;2023-07-31T09:08:04;24.90;99.90
1355;DHT22;671;48.972;9.276;2023-07-31T09:10:31;24.90;99.90
1355;DHT22;671;48.972;9.276;2023-07-31T09:12:57;24.90;99.90
1355;DHT22;671;48.972;9.276;2023-07-31T09:15:24;24.80;99.90
1355;DHT22;671;48.972;9.276;2023-07-31T09:17:59;24.70;99.90
1355;DHT22;671;48.972;9.276;2023-07-31T09:20:29;24.70;99.90
1355;DHT22;671;48.972;9.276;2023-07-31T09:22:55;24.70;99.90
1355;DHT22;671;48.972;9.276;2023-07-31T09:25:23;24.60;99.90
1355;DHT22;671;48.972;9.276;2023-07-31T09:27:51;24.50;99.90
1355;DHT22;671;48.972;9.276;2023-07-31T09:30:18;24.40;99.90
1355;DHT22;671;48.972;9.276;2023-07-31T09:32:45;24.50;99.90
1355;DHT22;671;48.972;9.276;2023-07-31T09:37:58;24.50;99.90
1355;DHT22;671;48.972;9.276;2023-07-31T09:40:33;24.50;99.90
1355;DHT22;671;48.972;9.276;2023-07-31T09:43:10;24.50;99.90
1355;DHT22;671;48.972;9.276;2023-07-31T09:45:39;24.30;99.90
1355;DHT22;671;48.972;9.276;2023-07-31T09:48:19;24.40;99.90
1355;DHT22;671;48.972;9.276;2023-07-31T09:50:47;24.40;99.90
1355;DHT22;671;48.972;9.276;2023-07-31T09:53:15;24.40;99.90
1355;DHT22;671;48.972;9.276;2023-07-31T09:55:43;24.40;99.90
1355;DHT22;671;48.972;9.276;2023-07-31T09:58:11;24.30;99.90
1355;DHT22;671;48.972;9.276;2023-07-31T10:00:38;24.30;99.90
1355;DHT22;671;48.972;9.276;2023-07-31T10:03:08;24.30;99.90
1355;DHT22;671;48.972;9.276;2023-07-31T10:08:04;24.50;99.90
1355;DHT22;671;48.972;9.276;2023-07-31T10:10:32;24.60;99.90
1355;DHT22;671;48.972;9.276;2023-07-31T10:13:02;24.70;99.90
1355;DHT22;671;48.972;9.276;2023-07-31T10:15:30;24.70;99.90
1355;DHT22;671;48.972;9.276;2023-07-31T10:17:58;24.70;99.90
1355;DHT22;671;48.972;9.276;2023-07-31T10:20:26;24.80;99.90
1355;DHT22;671;48.972;9.276;2023-07-31T10:22:54;24.80;99.90
1355;DHT22;671;48.972;9.276;2023-07-31T10:25:22;24.90;99.90
1355;DHT22;671;48.972;9.276;2023-07-31T10:27:49;25.00;99.90
1355;DHT22;671;48.972;9.276;2023-07-31T10:30:18;25.00;99.90
1355;DHT22;671;48.972;9.276;2023-07-31T10:32:46;25.30;99.90
1355;DHT22;671;48.972;9.276;2023-07-31T10:35:16;25.40;99.90
1355;DHT22;671;48.972;9.276;2023-07-31T10:37:44;25.50;99.90
1355;DHT22;671;48.972;9.276;2023-07-31T10:40:17;25.50;99.90
1355;DHT22;671;48.972;9.276;2023-07-31T10:42:51;25.50;99.90
1355;DHT22;671;48.972;9.276;2023-07-31T10:48:01;25.40;99.90
1355;DHT22;671;48.972;9.276;2023-07-31T10:50:30;25.40;99.90
1355;DHT22;671;48.972;9.276;2023-07-31T10:52:59;25.30;99.90
1355;DHT22;671;48.972;9.276;2023-07-31T10:57:55;25.20;99.90
1355;DHT22;671;48.972;9.276;2023-07-31T11:00:27;25.20;99.90
1355;DHT22;671;48.972;9.276;2023-07-31T11:03:29;25.20;99.90
1355;DHT22;671;48.972;9.276;2023-07-31T11:06:07;25.20;99.90
1355;DHT22;671;48.972;9.276;2023-07-31T11:08:35;25.20;99.90
1355;DHT22;671;48.972;9.276;2023-07-31T11:13:51;25.70;99.90
1355;DHT22;671;48.972;9.276;2023-07-31T11:16:25;26.00;99.90
1355;DHT22;671;48.972;9.276;2023-07-31T11:18:52;26.40;99.90
1355;DHT22;671;48.972;9.276;2023-07-31T11:21:22;26.70;99.80
1355;DHT22;671;48.972;9.276;2023-07-31T11:23:56;26.90;99.80
1355;DHT22;671;48.972;9.276;2023-07-31T11:26:24;27.10;99.90
1355;DHT22;671;48.972;9.276;2023-07-31T11:28:51;27.30;99.50
1355;DHT22;671;48.972;9.276;2023-07-31T11:31:18;27.30;99.30
1355;DHT22;671;48.972;9.276;2023-07-31T11:33:45;27.20;98.50
1355;DHT22;671;48.972;9.276;2023-07-31T11:36:19;27.00;97.70
1355;DHT22;671;48.972;9.276;2023-07-31T11:38:46;26.80;98.00
1355;DHT22;671;48.972;9.276;2023-07-31T11:41:15;26.70;98.10
1355;DHT22;671;48.972;9.276;2023-07-31T11:43:46;26.60;98.10
1355;DHT22;671;48.972;9.276;2023-07-31T11:46:14;26.60;99.30
1355;DHT22;671;48.972;9.276;2023-07-31T11:48:41;26.50;99.00
1355;DHT22;671;48.972;9.276;2023-07-31T11:51:10;26.60;99.70
1355;DHT22;671;48.972;9.276;2023-07-31T11:53:42;26.60;98.90
1355;DHT22;671;48.972;9.276;2023-07-31T11:56:12;26.60;99.10
1355;DHT22;671;48.972;9.276;2023-07-31T11:58:40;26.40;98.50
1355;DHT22;671;48.972;9.276;2023-07-31T12:01:07;26.30;98.70
1355;DHT22;671;48.972;9.276;2023-07-31T12:03:34;26.10;99.40
1355;DHT22;671;48.972;9.276;2023-07-31T12:06:01;26.00;99.40
1355;DHT22;671;48.972;9.276;2023-07-31T12:08:29;26.10;99.60
1355;DHT22;671;48.972;9.276;2023-07-31T12:11:04;26.20;99.50
1355;DHT22;671;48.972;9.276;2023-07-31T12:13:32;26.40;99.70
1355;DHT22;671;48.972;9.276;2023-07-31T12:16:00;26.50;99.20
1355;DHT22;671;48.972;9.276;2023-07-31T12:18:33;26.50;99.20
1355;DHT22;671;48.972;9.276;2023-07-31T12:21:01;26.50;98.90
1355;DHT22;671;48.972;9.276;2023-07-31T12:23:32;26.50;99.00
1355;DHT22;671;48.972;9.276;2023-07-31T12:26:17;26.60;98.40
1355;DHT22;671;48.972;9.276;2023-07-31T12:28:47;26.80;98.90
1355;DHT22;671;48.972;9.276;2023-07-31T12:31:16;27.00;99.20
1355;DHT22;671;48.972;9.276;2023-07-31T12:33:51;27.00;98.10
1355;DHT22;671;48.972;9.276;2023-07-31T12:36:21;27.10;98.00
1355;DHT22;671;48.972;9.276;2023-07-31T12:38:48;27.00;98.60
1355;DHT22;671;48.972;9.276;2023-07-31T12:41:15;27.10;97.80
1355;DHT22;671;48.972;9.276;2023-07-31T12:43:44;27.00;98.10
1355;DHT22;671;48.972;9.276;2023-07-31T12:46:11;27.00;97.60
1355;DHT22;671;48.972;9.276;2023-07-31T12:48:38;26.90;97.10
1355;DHT22;671;48.972;9.276;2023-07-31T12:51:05;26.80;97.80
1355;DHT22;671;48.972;9.276;2023-07-31T12:53:32;26.80;98.00
1355;DHT22;671;48.972;9.276;2023-07-31T12:55:59;26.80;97.80
1355;DHT22;671;48.972;9.276;2023-07-31T12:58:26;26.70;97.40
1355;DHT22;671;48.972;9.276;2023-07-31T13:00:52;26.60;97.30
1355;DHT22;671;48.972;9.276;2023-07-31T13:03:19;26.60;97.90
1355;DHT22;671;48.972;9.276;2023-07-31T13:05:45;26.60;97.00
1355;DHT22;671;48.972;9.276;2023-07-31T13:08:12;26.60;97.20
1355;DHT22;671;48.972;9.276;2023-07-31T13:10:38;26.50;97.20
1355;DHT22;671;48.972;9.276;2023-07-31T13:13:05;26.40;97.00
1355;DHT22;671;48.972;9.276;2023-07-31T13:15:31;26.20;97.60
1355;DHT22;671;48.972;9.276;2023-07-31T13:17:57;26.10;97.90
1355;DHT22;671;48.972;9.276;2023-07-31T13:20:23;26.10;98.10
1355;DHT22;671;48.972;9.276;2023-07-31T13:22:48;26.00;97.80
1355;DHT22;671;48.972;9.276;2023-07-31T13:25:14;25.90;98.50
1355;DHT22;671;48.972;9.276;2023-07-31T13:27:41;25.90;97.80
1355;DHT22;671;48.972;9.276;2023-07-31T13:30:07;25.90;97.50
1355;DHT22;671;48.972;9.276;2023-07-31T13:32:34;25.90;97.60
1355;DHT22;671;48.972;9.276;2023-07-31T13:35:06;25.90;97.60
1355;DHT22;671;48.972;9.276;2023-07-31T13:37:33;26.00;97.60
1355;DHT22;671;48.972;9.276;2023-07-31T13:39:59;26.00;97.80
1355;DHT22;671;48.972;9.276;2023-07-31T13:42:26;26.10;97.90
1355;DHT22;671;48.972;9.276;2023-07-31T13:44:54;26.30;97.30
1355;DHT22;671;48.972;9.276;2023-07-31T13:47:22;26.40;97.20
1355;DHT22;671;48.972;9.276;2023-07-31T13:49:48;26.40;97.00
1355;DHT22;671;48.972;9.276;2023-07-31T13:52:15;26.40;98.30
1355;DHT22;671;48.972;9.276;2023-07-31T13:54:41;26.40;98.10
1355;DHT22;671;48.972;9.276;2023-07-31T13:57:09;26.50;97.40
1355;DHT22;671;48.972;9.276;2023-07-31T13:59:36;26.50;97.60
1355;DHT22;671;48.972;9.276;2023-07-31T14:02:03;26.40;97.90
1355;DHT22;671;48.972;9.276;2023-07-31T14:04:29;26.40;98.40
1355;DHT22;671;48.972;9.276;2023-07-31T14:06:56;26.50;99.30
1355;DHT22;671;48.972;9.276;2023-07-31T14:09:23;26.50;98.60
1355;DHT22;671;48.972;9.276;2023-07-31T14:11:50;26.60;98.70
1355;DHT22;671;48.972;9.276;2023-07-31T14:14:16;26.60;99.00
1355;DHT22;671;48.972;9.276;2023-07-31T14:16:44;26.60;98.70
1355;DHT22;671;48.972;9.276;2023-07-31T14:19:10;26.60;99.20
1355;DHT22;671;48.972;9.276;2023-07-31T14:21:37;26.50;99.90
1355;DHT22;671;48.972;9.276;2023-07-31T14:24:04;26.60;99.70
1355;DHT22;671;48.972;9.276;2023-07-31T14:26:30;26.60;98.70
1355;DHT22;671;48.972;9.276;2023-07-31T14:28:57;26.70;97.90
1355;DHT22;671;48.972;9.276;2023-07-31T14:31:23;26.60;98.20
1355;DHT22;671;48.972;9.276;2023-07-31T14:33:50;26.70;98.50
1355;DHT22;671;48.972;9.276;2023-07-31T14:36:16;26.90;98.80
1355;DHT22;671;48.972;9.276;2023-07-31T14:38:43;27.00;98.00
1355;DHT22;671;48.972;9.276;2023-07-31T14:41:09;27.00;97.40
1355;DHT22;671;48.972;9.276;2023-07-31T14:43:36;26.90;97.50
1355;DHT22;671;48.972;9.276;2023-07-31T14:46:02;26.80;98.40
1355;DHT22;671;48.972;9.276;2023-07-31T14:48:29;26.80;98.10
1355;DHT22;671;48.972;9.276;2023-07-31T14:50:55;26.80;98.00
1355;DHT22;671;48.972;9.276;2023-07-31T14:53:22;26.70;98.60
1355;DHT22;671;48.972;9.276;2023-07-31T14:55:48;26.80;98.00
1355;DHT22;671;48.972;9.276;2023-07-31T14:58:15;26.80;98.00
1355;DHT22;671;48.972;9.276;2023-07-31T15:00:43;26.70;98.10
1355;DHT22;671;48.972;9.276;2023-07-31T15:03:10;26.50;97.70
1355;DHT22;671;48.972;9.276;2023-07-31T15:05:36;26.30;98.20
1355;DHT22;671;48.972;9.276;2023-07-31T15:08:03;26.20;98.50
1355;DHT22;671;48.972;9.276;2023-07-31T15:10:29;26.10;98.60
1355;DHT22;671;48.972;9.276;2023-07-31T15:12:56;25.90;98.30
1355;DHT22;671;48.972;9.276;2023-07-31T15:15:22;25.80;99.20
1355;DHT22;671;48.972;9.276;2023-07-31T15:17:50;25.70;99.00
1355;DHT22;671;48.972;9.276;2023-07-31T15:20:16;25.60;99.10
1355;DHT22;671;48.972;9.276;2023-07-31T15:22:43;25.60;99.40
1355;DHT22;671;48.972;9.276;2023-07-31T15:25:10;25.50;98.90
1355;DHT22;671;48.972;9.276;2023-07-31T15:27:36;25.50;99.40
1355;DHT22;671;48.972;9.276;2023-07-31T15:30:03;25.60;99.40
1355;DHT22;671;48.972;9.276;2023-07-31T15:32:31;25.70;99.20
1355;DHT22;671;48.972;9.276;2023-07-31T15:34:58;25.90;99.40
1355;DHT22;671;48.972;9.276;2023-07-31T15:37:24;26.20;99.40
1355;DHT22;671;48.972;9.276;2023-07-31T15:39:51;26.30;98.90
1355;DHT22;671;48.972;9.276;2023-07-31T15:42:17;26.30;98.90
1355;DHT22;671;48.972;9.276;2023-07-31T15:44:43;26.30;98.80
1355;DHT22;671;48.972;9.276;2023-07-31T15:47:10;26.30;98.80
1355;DHT22;671;48.972;9.276;2023-07-31T15:49:37;26.20;98.80
1355;DHT22;671;48.972;9.276;2023-07-31T15:52:03;26.20;98.40
1355;DHT22;671;48.972;9.276;2023-07-31T15:54:30;26.30;98.80
1355;DHT22;671;48.972;9.276;2023-07-31T15:56:57;26.30;98.80
1355;DHT22;671;48.972;9.276;2023-07-31T15:59:23;26.20;98.80
1355;DHT22;671;48.972;9.276;2023-07-31T16:01:50;26.20;98.90
1355;DHT22;671;48.972;9.276;2023-07-31T16:04:16;26.10;98.90
1355;DHT22;671;48.972;9.276;2023-07-31T16:06:43;26.10;98.90
1355;DHT22;671;48.972;9.276;2023-07-31T16:09:08;26.20;99.30
1355;DHT22;671;48.972;9.276;2023-07-31T16:11:34;26.20;98.80
1355;DHT22;671;48.972;9.276;2023-07-31T16:14:00;26.20;99.40
1355;DHT22;671;48.972;9.276;2023-07-31T16:16:27;26.10;99.20
1355;DHT22;671;48.972;9.276;2023-07-31T16:18:54;26.10;99.10
1355;DHT22;671;48.972;9.276;2023-07-31T16:21:20;26.10;99.50
1355;DHT22;671;48.972;9.276;2023-07-31T16:23:47;25.90;99.00
1355;DHT22;671;48.972;9.276;2023-07-31T16:26:13;25.80;99.50
1355;DHT22;671;48.972;9.276;2023-07-31T16:28:40;25.60;99.80
1355;DHT22;671;48.972;9.276;2023-07-31T16:31:06;25.60;99.90
1355;DHT22;671;48.972;9.276;2023-07-31T16:33:33;25.50;99.90
1355;DHT22;671;48.972;9.276;2023-07-31T16:36:00;25.50;99.90
1355;DHT22;671;48.972;9.276;2023-07-31T16:38:26;25.50;99.80
1355;DHT22;671;48.972;9.276;2023-07-31T16:40:53;25.40;99.90
1355;DHT22;671;48.972;9.276;2023-07-31T16:43:19;25.50;99.70